Time;durP1;ratioP1;P1;durP2;ratioP2;P2;SDS_P1;SDS_P2;PMS_P1;PMS_P2;Temp;Humidity;BMP_temperature;BMP_pressure;BME280_temperature;BME280_humidity;BME280_pressure;Samples;Min_cycle;Max_cycle;Signal;HPM_P1;HPM_P2
2021/05/08 00:00:59;;;;;;;11.68;9.18;;;;;;;6.08;66.25;100461.97;5018174;28;20283;-69
2021/05/08 00:03:26;;;;;;;13.13;8.90;;;;;;;5.94;66.01;100471.25;5018032;28;20076;-72
2021/05/08 00:05:52;;;;;;;13.95;8.35;;;;;;;5.87;66.50;100469.75;5016932;28;20069;-71
2021/05/08 00:08:18;;;;;;;14.45;9.05;;;;;;;5.89;67.00;100459.13;5017929;28;20379;-72
2021/05/08 00:10:44;;;;;;;16.83;9.77;;;;;;;5.78;67.55;100462.16;5017140;28;20069;-72
2021/05/08 00:13:11;;;;;;;13.85;9.10;;;;;;;5.67;67.87;100455.47;5016961;28;20061;-72
2021/05/08 00:15:39;;;;;;;10.85;9.10;;;;;;;5.69;68.33;100453.63;5017993;28;20064;-71
2021/05/08 00:18:05;;;;;;;15.20;8.45;;;;;;;5.62;68.55;100452.09;5016737;28;20325;-70
2021/05/08 00:20:32;;;;;;;11.68;8.98;;;;;;;5.53;68.65;100444.50;5033108;28;20060;-72
2021/05/08 00:23:04;;;;;;;12.70;8.68;;;;;;;5.41;69.32;100446.66;5017004;28;20107;-72
2021/05/08 00:25:31;;;;;;;12.43;8.80;;;;;;;5.46;68.92;100442.97;5032537;28;20056;-72
2021/05/08 00:27:57;;;;;;;11.30;8.68;;;;;;;5.28;69.76;100440.94;5017828;28;20049;-71
2021/05/08 00:30:23;;;;;;;14.18;9.45;;;;;;;5.30;69.76;100436.44;5017581;28;20347;-73
2021/05/08 00:32:50;;;;;;;10.68;9.23;;;;;;;5.28;70.04;100435.63;5016521;28;20056;-71
2021/05/08 00:35:16;;;;;;;13.80;9.38;;;;;;;5.21;70.13;100439.41;5017626;28;20057;-71
2021/05/08 00:37:43;;;;;;;11.90;9.30;;;;;;;5.20;69.89;100418.28;5017394;28;20076;-72
2021/05/08 00:40:11;;;;;;;11.77;9.63;;;;;;;5.18;69.91;100415.72;5017514;28;20054;-72
2021/05/08 00:42:37;;;;;;;11.10;9.10;;;;;;;5.19;70.06;100416.56;5017473;28;20395;-72
2021/05/08 00:45:07;;;;;;;10.90;8.45;;;;;;;5.07;69.95;100407.28;5017367;28;20148;-70
2021/05/08 00:47:48;;;;;;;14.10;8.93;;;;;;;5.04;70.52;100402.94;5016149;28;20402;-70
2021/05/08 00:50:19;;;;;;;15.23;9.82;;;;;;;4.89;71.01;100391.09;5016250;28;20136;-72
2021/05/08 00:52:45;;;;;;;13.85;9.52;;;;;;;4.79;71.69;100392.34;5032083;28;20049;-73
2021/05/08 00:55:11;;;;;;;16.80;10.25;;;;;;;4.82;72.44;100405.44;5017248;28;20125;-70
2021/05/08 00:57:39;;;;;;;13.60;9.65;;;;;;;4.80;72.15;100392.25;5016240;28;20054;-72
2021/05/08 01:00:08;;;;;;;15.35;10.48;;;;;;;4.72;72.36;100379.31;5016095;28;20363;-71
2021/05/08 01:02:34;;;;;;;13.45;9.60;;;;;;;4.93;70.19;100392.72;5017213;28;20049;-71
2021/05/08 01:05:01;;;;;;;10.60;8.52;;;;;;;5.08;68.59;100398.41;5016888;28;20477;-69
2021/05/08 01:07:27;;;;;;;13.25;9.07;;;;;;;5.12;69.31;100387.66;5016700;28;20062;-72
2021/05/08 01:09:54;;;;;;;14.35;9.32;;;;;;;5.18;69.28;100386.59;5016790;28;20096;-71
2021/05/08 01:12:21;;;;;;;10.45;8.55;;;;;;;5.19;69.33;100393.63;5016667;28;20076;-73
2021/05/08 01:14:48;;;;;;;12.73;8.80;;;;;;;5.13;70.81;100388.53;5016972;28;20057;-71
2021/05/08 01:17:15;;;;;;;13.07;9.13;;;;;;;5.11;70.02;100387.72;5016935;28;20061;-70
2021/05/08 01:19:41;;;;;;;10.77;8.95;;;;;;;5.10;70.31;100384.22;5016608;28;20057;-70
2021/05/08 01:22:07;;;;;;;18.13;8.88;;;;;;;5.05;70.08;100382.66;5016697;28;20060;-71
2021/05/08 01:24:33;;;;;;;10.57;8.32;;;;;;;4.94;71.13;100389.16;5016585;28;20116;-68
2021/05/08 01:26:59;;;;;;;10.98;8.82;;;;;;;4.80;71.93;100378.19;5016467;28;20064;-72
2021/05/08 01:29:25;;;;;;;12.90;8.80;;;;;;;4.77;72.17;100376.50;5016833;28;20065;-69
2021/05/08 01:31:51;;;;;;;10.88;9.27;;;;;;;4.69;72.20;100379.41;5016379;28;20050;-71
2021/05/08 01:34:18;;;;;;;12.02;9.25;;;;;;;4.63;72.40;100376.94;5016549;28;20057;-69
2021/05/08 01:36:44;;;;;;;10.73;9.05;;;;;;;4.64;71.89;100365.50;5016264;28;20050;-71
2021/05/08 01:39:10;;;;;;;12.35;9.20;;;;;;;4.66;72.23;100368.94;5031820;28;20475;-69
2021/05/08 01:41:36;;;;;;;14.32;9.15;;;;;;;4.57;72.40;100361.31;5016151;28;20049;-70
2021/05/08 01:44:04;;;;;;;9.82;8.43;;;;;;;4.65;72.05;100368.97;5016507;28;20127;-72
2021/05/08 01:46:31;;;;;;;17.00;9.18;;;;;;;4.54;72.75;100366.69;5015529;28;20057;-71
2021/05/08 01:48:59;;;;;;;13.55;9.40;;;;;;;4.54;72.92;100364.03;5016181;28;20379;-70
2021/05/08 01:51:26;;;;;;;13.40;9.73;;;;;;;4.60;72.54;100353.28;5016077;28;20345;-71
2021/05/08 01:53:52;;;;;;;12.35;9.27;;;;;;;4.65;72.38;100361.91;5014977;28;20343;-69
2021/05/08 01:56:18;;;;;;;15.10;9.65;;;;;;;4.64;72.08;100348.75;5014955;28;20104;-73
2021/05/08 01:58:44;;;;;;;11.90;9.10;;;;;;;4.62;72.32;100340.84;5016107;28;20060;-70
2021/05/08 02:01:10;;;;;;;12.48;8.35;;;;;;;4.66;72.21;100347.78;5035540;28;20126;-70
2021/05/08 02:03:40;;;;;;;10.70;8.23;;;;;;;4.62;72.12;100336.44;5019545;28;20057;-70
2021/05/08 02:06:07;;;;;;;12.43;8.88;;;;;;;4.68;72.32;100335.38;5016554;28;20050;-71
2021/05/08 02:08:33;;;;;;;10.90;8.00;;;;;;;4.74;71.86;100337.81;5015487;28;20061;-70
2021/05/08 02:10:59;;;;;;;10.18;7.40;;;;;;;4.81;69.08;100335.84;5014593;28;20045;-72
2021/05/08 02:13:25;;;;;;;11.60;7.00;;;;;;;4.99;66.99;100331.69;5015019;28;20359;-71
2021/05/08 02:15:51;;;;;;;6.90;4.97;;;;;;;5.21;64.56;100328.28;5031478;28;20128;-70
2021/05/08 02:18:18;;;;;;;6.30;4.88;;;;;;;5.34;64.69;100328.66;5016924;28;20089;-71
2021/05/08 02:20:45;;;;;;;8.20;5.10;;;;;;;5.45;62.71;100322.97;5016077;28;20062;-72
2021/05/08 02:23:15;;;;;;;8.00;5.15;;;;;;;5.56;62.89;100334.03;5016349;28;20118;-70
2021/05/08 02:25:41;;;;;;;7.65;5.28;;;;;;;5.60;61.93;100318.06;5017132;28;20084;-71
2021/05/08 02:28:08;;;;;;;6.60;5.03;;;;;;;5.65;61.34;100316.06;5016552;28;20056;-72
2021/05/08 02:30:37;;;;;;;9.20;5.03;;;;;;;5.76;60.91;100316.53;5016486;28;20184;-69
2021/05/08 02:33:04;;;;;;;9.57;4.28;;;;;;;5.72;60.61;100301.69;5016778;28;20053;-70
2021/05/08 02:35:31;;;;;;;8.32;4.55;;;;;;;5.78;60.65;100304.09;5016394;28;20057;-71
2021/05/08 02:37:58;;;;;;;7.00;4.90;;;;;;;5.76;60.39;100298.00;5016325;28;20050;-69
2021/05/08 02:40:26;;;;;;;7.90;4.20;;;;;;;5.81;60.89;100296.03;5015625;28;20108;-70
2021/05/08 02:42:53;;;;;;;9.55;4.25;;;;;;;5.86;60.50;100295.84;5016465;28;20089;-69
2021/05/08 02:45:19;;;;;;;8.55;4.43;;;;;;;5.89;60.29;100284.28;5016890;28;20046;-71
2021/05/08 02:47:47;;;;;;;8.10;4.10;;;;;;;5.81;60.67;100285.44;5016681;28;20064;-69
2021/05/08 02:50:15;;;;;;;10.25;4.72;;;;;;;5.80;60.99;100285.50;5016550;28;20427;-70
2021/05/08 02:52:41;;;;;;;7.38;4.05;;;;;;;5.76;61.16;100289.19;5016249;28;20057;-70
2021/05/08 02:55:08;;;;;;;5.22;4.20;;;;;;;5.77;61.09;100275.03;5030559;28;20050;-70
2021/05/08 02:57:35;;;;;;;8.30;4.68;;;;;;;5.77;60.63;100275.88;5015334;28;20049;-70
2021/05/08 03:00:04;;;;;;;7.22;4.28;;;;;;;5.69;60.92;100270.03;5015447;28;20390;-71
2021/05/08 03:02:31;;;;;;;7.20;5.32;;;;;;;5.70;60.85;100274.41;5015357;28;20049;-70
2021/05/08 03:04:58;;;;;;;7.43;3.97;;;;;;;5.71;60.80;100287.59;5015169;28;20046;-72
2021/05/08 03:07:24;;;;;;;9.93;4.13;;;;;;;5.67;61.01;100277.19;5015190;28;20065;-71
2021/05/08 03:09:50;;;;;;;7.03;3.78;;;;;;;5.73;60.94;100276.06;5015143;28;20450;-70
2021/05/08 03:12:17;;;;;;;9.32;4.50;;;;;;;5.70;61.12;100274.41;5013792;28;20062;-69
2021/05/08 03:14:43;;;;;;;6.88;3.90;;;;;;;5.63;61.07;100273.78;5015156;28;20096;-70
2021/05/08 03:17:09;;;;;;;6.40;3.65;;;;;;;5.63;61.03;100275.56;5015183;28;20368;-71
2021/05/08 03:19:36;;;;;;;10.60;4.15;;;;;;;5.65;61.55;100276.34;5015183;28;20057;-72
2021/05/08 03:22:04;;;;;;;8.38;4.13;;;;;;;5.55;61.19;100263.47;5019194;28;20049;-71
2021/05/08 03:24:31;;;;;;;8.48;4.15;;;;;;;5.63;61.91;100270.25;5018914;28;20053;-71
2021/05/08 03:26:57;;;;;;;6.53;4.40;;;;;;;5.61;61.32;100267.66;5017965;28;20054;-72
2021/05/08 03:29:23;;;;;;;7.60;4.95;;;;;;;5.62;61.23;100258.78;5018984;28;20049;-72
2021/05/08 03:31:50;;;;;;;9.10;5.38;;;;;;;5.65;61.08;100263.13;5034008;28;20061;-71
2021/05/08 03:34:16;;;;;;;8.77;4.85;;;;;;;5.65;61.39;100260.47;5018687;28;20434;-70
2021/05/08 03:36:42;;;;;;;9.68;4.90;;;;;;;5.46;61.23;100229.44;5017773;28;20355;-69
2021/05/08 03:39:09;;;;;;;8.05;4.40;;;;;;;5.44;61.34;100232.13;5017801;28;20053;-69
2021/05/08 03:41:35;;;;;;;8.52;5.60;;;;;;;5.61;61.16;100254.44;5018842;28;20065;-71
2021/05/08 03:44:01;;;;;;;8.27;4.75;;;;;;;5.58;61.28;100247.47;5018552;28;20402;-70
2021/05/08 03:46:28;;;;;;;7.00;4.60;;;;;;;5.58;61.79;100252.75;5017567;28;20457;-70
2021/05/08 03:48:54;;;;;;;5.63;3.92;;;;;;;5.63;61.04;100252.59;5018307;28;20068;-72
2021/05/08 03:51:23;;;;;;;6.70;3.83;;;;;;;5.65;61.12;100247.22;5018396;28;20088;-72
2021/05/08 03:53:51;;;;;;;6.38;3.83;;;;;;;5.65;61.13;100252.53;5018476;28;20065;-73
2021/05/08 03:56:17;;;;;;;7.28;3.90;;;;;;;5.64;61.41;100245.50;5018470;28;20060;-71
2021/05/08 03:58:44;;;;;;;6.50;3.47;;;;;;;5.70;60.94;100253.22;5033700;28;20056;-73
2021/05/08 04:01:10;;;;;;;7.43;3.22;;;;;;;5.83;60.41;100256.25;5018313;28;20054;-71
2021/05/08 04:03:36;;;;;;;10.00;3.30;;;;;;;5.93;60.05;100254.94;5018273;28;20058;-72
2021/05/08 04:06:02;;;;;;;7.38;3.45;;;;;;;5.94;60.15;100242.59;5018390;28;20054;-70
2021/05/08 04:08:29;;;;;;;7.43;4.15;;;;;;;6.00;59.66;100242.34;5018232;28;20053;-72
2021/05/08 04:10:55;;;;;;;7.07;3.45;;;;;;;6.15;59.18;100250.59;5034744;28;20064;-70
2021/05/08 04:13:21;;;;;;;7.80;3.47;;;;;;;6.23;58.55;100241.38;5022266;28;20096;-70
2021/05/08 04:15:47;;;;;;;9.45;3.25;;;;;;;6.37;58.04;100224.91;5019165;28;20053;-71
2021/05/08 04:18:13;;;;;;;5.43;3.20;;;;;;;6.50;58.03;100235.00;5018875;28;20053;-73
2021/05/08 04:20:40;;;;;;;6.70;3.13;;;;;;;6.55;58.14;100230.38;5017980;28;20049;-70
2021/05/08 04:23:06;;;;;;;8.60;3.63;;;;;;;6.62;57.18;100231.81;5018115;28;20056;-72
2021/05/08 04:25:33;;;;;;;9.45;3.70;;;;;;;6.68;57.31;100232.47;5017995;28;20058;-70
2021/05/08 04:27:59;;;;;;;7.75;3.58;;;;;;;6.70;56.91;100210.25;5017785;28;20057;-73
2021/05/08 04:30:25;;;;;;;7.78;3.20;;;;;;;6.74;57.01;100225.13;5017666;28;20054;-73
2021/05/08 04:33:11;;;;;;;7.80;3.22;;;;;;;6.76;56.71;100214.44;5017991;28;20061;-73
2021/05/08 04:35:38;;;;;;;6.20;3.10;;;;;;;6.84;56.63;100222.03;5032933;28;20050;-73
2021/05/08 04:38:05;;;;;;;10.90;4.00;;;;;;;6.86;57.22;100220.22;5016819;28;20054;-71
2021/05/08 04:40:31;;;;;;;8.10;3.47;;;;;;;6.90;56.57;100217.34;5017570;28;20050;-71
2021/05/08 04:42:58;;;;;;;6.57;3.20;;;;;;;6.89;56.97;100225.38;5017267;28;20419;-73
2021/05/08 04:45:25;;;;;;;7.35;3.45;;;;;;;6.89;57.57;100230.66;5017508;28;20076;-71
2021/05/08 04:47:56;;;;;;;9.10;3.40;;;;;;;6.92;57.11;100219.94;5017408;28;20050;-73
2021/05/08 04:50:24;;;;;;;7.30;3.00;;;;;;;7.04;57.07;100226.47;5017156;28;20057;-71
2021/05/08 04:52:51;;;;;;;5.07;3.00;;;;;;;7.04;57.00;100234.44;5016179;28;20136;-70
2021/05/08 04:55:17;;;;;;;6.03;3.15;;;;;;;7.12;56.67;100229.63;5016923;28;20054;-70
2021/05/08 04:57:48;;;;;;;6.78;2.97;;;;;;;7.09;56.80;100227.13;5017357;28;20049;-72
2021/05/08 05:00:15;;;;;;;4.90;3.03;;;;;;;7.12;56.76;100226.97;5032498;28;20111;-73
2021/05/08 05:02:42;;;;;;;5.65;3.00;;;;;;;7.16;56.65;100231.22;5017192;28;20053;-71
2021/05/08 05:05:10;;;;;;;7.05;3.03;;;;;;;7.23;56.46;100228.28;5015913;28;20053;-72
2021/05/08 05:07:37;;;;;;;5.25;3.00;;;;;;;7.20;56.38;100224.00;5016776;28;20061;-73
2021/05/08 05:10:05;;;;;;;7.35;3.35;;;;;;;7.33;56.36;100218.97;5016876;28;20046;-73
2021/05/08 05:12:31;;;;;;;6.85;2.88;;;;;;;7.42;55.90;100223.81;5016763;28;20045;-72
2021/05/08 05:14:57;;;;;;;5.90;2.70;;;;;;;7.48;55.33;100220.03;5016734;28;20056;-71
2021/05/08 05:17:24;;;;;;;5.68;2.95;;;;;;;7.48;55.07;100214.72;5016807;28;20065;-71
2021/05/08 05:19:50;;;;;;;6.70;3.03;;;;;;;7.58;55.29;100223.13;5016808;28;20068;-72
2021/05/08 05:22:17;;;;;;;4.45;2.47;;;;;;;7.61;55.46;100217.66;5016691;28;20049;-70
2021/05/08 05:24:43;;;;;;;8.65;2.97;;;;;;;7.64;54.92;100214.88;5015531;28;20049;-70
2021/05/08 05:27:09;;;;;;;6.78;2.80;;;;;;;7.60;55.35;100203.53;5016590;28;20054;-73
2021/05/08 05:29:35;;;;;;;4.15;2.42;;;;;;;7.73;54.76;100217.06;5016736;28;20057;-71
2021/05/08 05:32:01;;;;;;;4.43;2.50;;;;;;;7.75;54.88;100217.00;5016574;28;20115;-70
2021/05/08 05:34:27;;;;;;;10.52;2.83;;;;;;;7.80;54.55;100217.63;5016607;28;20104;-72
2021/05/08 05:36:54;;;;;;;5.53;2.45;;;;;;;7.86;54.50;100201.38;5016334;28;20061;-73
2021/05/08 05:39:20;;;;;;;7.68;2.83;;;;;;;8.05;54.43;100215.56;5016656;28;20088;-71
2021/05/08 05:41:47;;;;;;;5.72;3.08;;;;;;;8.14;54.60;100225.75;5031859;28;20057;-72
2021/05/08 05:44:13;;;;;;;6.72;3.13;;;;;;;8.28;53.93;100225.91;5014732;28;20458;-73
2021/05/08 05:46:39;;;;;;;8.20;3.53;;;;;;;8.38;53.99;100217.44;5016534;28;20054;-70
2021/05/08 05:49:05;;;;;;;8.52;3.30;;;;;;;8.53;52.72;100226.47;5016421;28;20053;-71
2021/05/08 05:51:31;;;;;;;5.50;2.75;;;;;;;8.63;53.29;100232.19;5016155;28;20065;-70
2021/05/08 05:53:58;;;;;;;6.18;2.95;;;;;;;8.69;53.60;100231.88;5015242;28;20104;-71
2021/05/08 05:56:25;;;;;;;7.05;3.08;;;;;;;8.70;53.39;100217.63;5016458;28;20050;-71
2021/05/08 05:58:52;;;;;;;6.28;3.05;;;;;;;8.81;53.36;100231.25;5016279;28;20443;-72
2021/05/08 06:01:19;;;;;;;5.57;3.15;;;;;;;8.94;52.84;100230.59;5015171;28;20141;-70
2021/05/08 06:03:45;;;;;;;5.50;3.50;;;;;;;9.08;52.71;100233.38;5016093;28;20053;-69
2021/05/08 06:06:11;;;;;;;9.93;3.15;;;;;;;9.18;52.98;100233.75;5016086;28;20108;-72
2021/05/08 06:08:38;;;;;;;8.23;3.83;;;;;;;9.36;51.82;100239.00;5014726;28;20061;-72
2021/05/08 06:11:05;;;;;;;5.60;3.35;;;;;;;9.49;52.07;100233.88;5014910;28;20382;-72
2021/05/08 06:13:35;;;;;;;5.95;3.50;;;;;;;9.58;51.98;100236.00;5016006;28;20061;-72
2021/05/08 06:16:03;;;;;;;5.80;3.42;;;;;;;9.61;51.90;100243.84;5016068;28;20124;-71
2021/05/08 06:18:29;;;;;;;5.30;3.33;;;;;;;9.66;50.77;100232.94;5015827;28;20061;-71
2021/05/08 06:20:56;;;;;;;6.45;3.75;;;;;;;9.73;51.45;100242.28;5014531;28;20054;-70
2021/05/08 06:23:22;;;;;;;7.55;3.60;;;;;;;9.73;51.26;100241.44;5014854;28;20361;-72
2021/05/08 06:25:48;;;;;;;5.55;3.42;;;;;;;9.77;51.01;100230.50;5017160;28;20058;-70
2021/05/08 06:28:17;;;;;;;8.02;3.97;;;;;;;9.78;51.31;100236.69;5017197;28;20086;-70
2021/05/08 06:30:44;;;;;;;6.97;3.70;;;;;;;9.90;51.09;100236.00;5014718;28;20049;-72
2021/05/08 06:33:10;;;;;;;14.50;5.07;;;;;;;9.89;50.76;100230.75;5014365;28;20370;-73
2021/05/08 06:35:37;;;;;;;7.05;3.75;;;;;;;9.97;50.71;100231.16;5015712;28;20108;-70
2021/05/08 06:38:04;;;;;;;9.50;3.45;;;;;;;10.08;50.68;100230.53;5015672;28;20049;-71
2021/05/08 06:40:30;;;;;;;7.78;4.10;;;;;;;10.22;50.10;100234.22;5015482;28;20054;-71
2021/05/08 06:42:56;;;;;;;10.63;4.00;;;;;;;10.38;50.49;100235.06;5015580;28;20041;-72
2021/05/08 06:45:22;;;;;;;6.43;3.47;;;;;;;10.52;49.73;100236.06;5015453;28;20076;-71
2021/05/08 06:47:56;;;;;;;13.68;4.60;;;;;;;10.60;49.98;100233.81;5030574;28;20053;-70
2021/05/08 06:50:26;;;;;;;5.57;3.78;;;;;;;10.56;49.70;100227.78;5014333;28;20455;-72
2021/05/08 06:52:53;;;;;;;8.90;3.92;;;;;;;10.65;49.74;100220.16;5015183;28;20042;-70
2021/05/08 06:55:19;;;;;;;8.48;4.03;;;;;;;10.61;49.40;100219.50;5016595;28;20050;-70
2021/05/08 06:57:47;;;;;;;7.30;3.75;;;;;;;10.65;49.25;100215.72;5019488;28;20355;-71
2021/05/08 07:00:16;;;;;;;16.77;4.10;;;;;;;10.58;49.44;100217.03;5019281;28;20081;-71
2021/05/08 07:02:43;;;;;;;7.47;3.50;;;;;;;10.62;48.70;100215.03;5019274;28;20052;-72
2021/05/08 07:05:09;;;;;;;7.75;3.70;;;;;;;10.59;48.98;100208.06;5019435;28;20399;-73
2021/05/08 07:07:35;;;;;;;9.07;4.30;;;;;;;10.61;48.02;100213.31;5019054;28;20054;-71
2021/05/08 07:10:04;;;;;;;6.80;3.97;;;;;;;10.62;48.42;100213.19;5018089;28;20054;-72
2021/05/08 07:12:30;;;;;;;5.95;3.30;;;;;;;10.70;47.69;100204.75;5019083;28;20050;-72
2021/05/08 07:14:56;;;;;;;9.77;4.10;;;;;;;10.78;47.25;100215.81;5018987;28;20054;-72
2021/05/08 07:17:22;;;;;;;8.63;3.58;;;;;;;10.75;47.43;100201.78;5019218;28;20135;-73
2021/05/08 07:19:49;;;;;;;5.50;3.25;;;;;;;10.83;47.48;100204.84;5034410;28;20050;-72
2021/05/08 07:22:15;;;;;;;13.48;4.07;;;;;;;10.84;47.30;100195.91;5018901;28;20053;-72
2021/05/08 07:24:42;;;;;;;6.97;3.50;;;;;;;10.94;47.12;100199.69;5018974;28;20054;-71
2021/05/08 07:27:08;;;;;;;7.78;3.30;;;;;;;10.93;47.01;100210.47;5018886;28;20050;-73
2021/05/08 07:29:34;;;;;;;6.35;3.47;;;;;;;11.01;47.11;100202.88;5018788;28;20060;-71
2021/05/08 07:32:00;;;;;;;8.45;3.30;;;;;;;11.07;46.36;100196.28;5034180;28;20439;-69
2021/05/08 07:34:26;;;;;;;7.85;3.60;;;;;;;11.10;47.12;100198.75;5018984;28;20100;-72
2021/05/08 07:36:53;;;;;;;10.75;3.35;;;;;;;11.07;46.52;100197.13;5018821;28;20062;-71
2021/05/08 07:39:19;;;;;;;7.72;3.42;;;;;;;11.14;46.77;100198.47;5017585;28;20057;-72
2021/05/08 07:41:45;;;;;;;6.72;3.20;;;;;;;11.16;46.89;100197.50;5018470;28;20042;-72
2021/05/08 07:44:11;;;;;;;6.90;3.25;;;;;;;11.24;46.95;100188.03;5018302;28;20363;-73
2021/05/08 07:46:37;;;;;;;6.75;3.08;;;;;;;11.35;45.92;100197.19;5034053;28;20069;-71
2021/05/08 07:49:04;;;;;;;10.02;3.55;;;;;;;11.42;46.06;100193.16;5033604;28;20046;-73
2021/05/08 07:51:30;;;;;;;8.88;3.28;;;;;;;11.50;45.51;100196.19;5018427;28;20049;-71
2021/05/08 07:53:56;;;;;;;6.78;2.95;;;;;;;11.66;45.63;100188.06;5018396;28;20402;-72
2021/05/08 07:56:22;;;;;;;10.50;3.65;;;;;;;11.69;45.81;100181.66;5017176;28;20050;-70
2021/05/08 07:58:49;;;;;;;6.72;3.47;;;;;;;11.84;45.67;100184.28;5018179;28;20085;-73
2021/05/08 08:01:15;;;;;;;6.25;3.42;;;;;;;11.89;45.51;100184.81;5001070;28;20357;-71
2021/05/08 08:03:41;;;;;;;5.30;2.90;;;;;;;11.89;45.54;100164.31;5018213;28;20050;-71
2021/05/08 08:06:07;;;;;;;6.40;3.35;;;;;;;12.01;44.81;100167.97;5017486;28;20351;-73
2021/05/08 08:08:33;;;;;;;6.57;3.33;;;;;;;12.05;44.76;100164.13;5016765;28;20057;-73
2021/05/08 08:10:59;;;;;;;5.30;2.80;;;;;;;12.19;45.19;100165.91;5017975;28;20061;-71
2021/05/08 08:13:26;;;;;;;7.05;3.13;;;;;;;12.32;44.77;100160.56;5017789;28;20100;-72
2021/05/08 08:15:55;;;;;;;10.70;3.50;;;;;;;12.33;44.53;100156.06;5033103;28;20050;-71
2021/05/08 08:18:21;;;;;;;6.57;2.85;;;;;;;12.41;44.90;100156.38;5018021;28;20069;-71
2021/05/08 08:20:47;;;;;;;7.60;3.15;;;;;;;12.40;44.92;100161.84;5017011;28;20050;-72
2021/05/08 08:23:14;;;;;;;7.40;3.10;;;;;;;12.42;44.46;100147.41;5017724;28;20050;-73
2021/05/08 08:25:40;;;;;;;7.32;3.20;;;;;;;12.43;44.22;100149.09;5017562;28;20324;-71
2021/05/08 08:28:06;;;;;;;7.28;2.97;;;;;;;12.42;44.06;100139.38;5017592;28;20502;-71
2021/05/08 08:30:32;;;;;;;4.68;2.70;;;;;;;12.48;44.00;100122.03;5017562;28;20057;-72
2021/05/08 08:32:59;;;;;;;6.45;2.85;;;;;;;12.62;43.32;100129.97;5022924;28;20054;-71
2021/05/08 08:35:25;;;;;;;7.60;2.70;;;;;;;12.67;43.07;100131.44;5024842;28;20050;-70
2021/05/08 08:37:53;;;;;;;6.38;3.10;;;;;;;12.77;43.42;100132.50;5024873;28;20050;-70
2021/05/08 08:40:21;;;;;;;6.40;3.38;;;;;;;12.93;44.04;100126.06;5018431;28;20058;-71
2021/05/08 08:42:47;;;;;;;4.18;2.40;;;;;;;13.04;43.93;100120.78;5017752;28;20057;-72
2021/05/08 08:45:14;;;;;;;8.75;3.10;;;;;;;13.11;43.54;100107.78;5032803;28;20054;-73
2021/05/08 08:47:41;;;;;;;5.18;2.70;;;;;;;13.13;42.54;100114.75;5016367;28;20058;-71
2021/05/08 08:50:10;;;;;;;6.47;3.10;;;;;;;13.13;43.04;100104.03;5017501;28;20053;-71
2021/05/08 08:52:36;;;;;;;4.20;2.42;;;;;;;13.14;42.42;100091.50;5017131;28;20046;-72
2021/05/08 08:55:04;;;;;;;6.75;2.55;;;;;;;13.20;42.19;100100.91;5017063;28;20076;-73
2021/05/08 08:57:43;;;;;;;6.70;2.72;;;;;;;13.35;41.90;100083.69;5017202;28;20050;-71
2021/05/08 09:00:13;;;;;;;4.35;2.10;;;;;;;13.46;42.84;100080.28;5017343;28;20057;-72
2021/05/08 09:02:44;;;;;;;5.40;2.60;;;;;;;13.64;42.21;100080.72;5017038;28;20157;-72
2021/05/08 09:05:19;;;;;;;5.60;2.45;;;;;;;13.79;41.49;100083.19;5016938;28;20056;-71
2021/05/08 09:07:48;;;;;;;3.80;2.55;;;;;;;13.76;41.90;100075.38;5016365;28;20066;-73
2021/05/08 09:10:28;;;;;;;5.35;2.38;;;;;;;13.77;40.27;100088.69;5016936;28;20054;-73
2021/05/08 09:12:56;;;;;;;5.60;2.50;;;;;;;13.75;40.49;100079.91;5016703;28;20371;-73
2021/05/08 09:15:39;;;;;;;7.45;2.42;;;;;;;13.72;40.69;100085.47;5015926;28;20153;-70
2021/05/08 09:18:07;;;;;;;4.43;1.90;;;;;;;13.92;41.74;100081.28;5015767;28;20054;-71
2021/05/08 09:20:59;;;;;;;5.47;2.10;;;;;;;14.06;40.48;100074.84;5017939;28;20057;-71
2021/05/08 09:23:33;;;;;;;4.88;2.40;;;;;;;14.02;40.11;100051.06;5018962;28;20121;-71
2021/05/08 09:26:05;;;;;;;5.38;2.40;;;;;;;14.18;40.21;100058.78;5018275;28;20100;-69
2021/05/08 09:28:37;;;;;;;5.05;2.10;;;;;;;14.34;39.57;100070.00;5018449;28;20355;-71
2021/05/08 09:31:06;;;;;;;5.85;2.30;;;;;;;14.44;39.60;100070.16;4999840;28;20065;-72
2021/05/08 09:33:33;;;;;;;7.95;2.53;;;;;;;14.58;39.80;100065.50;5016287;28;20050;-72
2021/05/08 09:36:11;;;;;;;4.65;1.75;;;;;;;14.51;38.73;100062.47;5016467;28;20394;-69
2021/05/08 09:38:41;;;;;;;4.10;2.10;;;;;;;14.23;39.10;100057.44;5015280;28;20061;-72
2021/05/08 09:41:17;;;;;;;7.10;2.38;;;;;;;14.29;39.69;100061.50;5015434;28;20056;-72
2021/05/08 09:43:44;;;;;;;6.90;1.80;;;;;;;14.36;40.84;100057.34;5016216;28;20057;-70
2021/05/08 09:46:25;;;;;;;4.72;2.30;;;;;;;14.47;41.13;100053.81;5016411;28;20096;-71
2021/05/08 09:49:11;;;;;;;3.42;2.10;;;;;;;14.64;40.23;100051.59;5016124;28;20092;-72
2021/05/08 09:51:37;;;;;;;4.43;2.33;;;;;;;14.71;40.06;100060.88;5016137;28;20046;-71
2021/05/08 09:54:03;;;;;;;4.35;1.70;;;;;;;14.66;39.87;100055.88;5016162;28;20140;-71
2021/05/08 09:56:42;;;;;;;3.78;2.00;;;;;;;14.47;39.94;100058.31;5015937;28;20049;-71
2021/05/08 09:59:24;;;;;;;7.38;2.00;;;;;;;14.41;40.73;100054.28;5015863;28;20129;-73
2021/05/08 10:02:03;;;;;;;4.47;2.20;;;;;;;14.37;40.48;100048.31;5015786;28;20081;-71
2021/05/08 10:04:34;;;;;;;3.58;2.20;;;;;;;14.42;40.43;100056.00;5014825;28;20054;-73
2021/05/08 10:07:14;;;;;;;4.35;2.33;;;;;;;14.47;41.98;100045.75;5015913;28;20054;-72
2021/05/08 10:09:44;;;;;;;3.58;2.00;;;;;;;14.35;40.37;100039.53;5015625;28;20053;-73
2021/05/08 10:12:12;;;;;;;8.35;2.53;;;;;;;14.38;41.33;100039.28;5014548;28;20041;-73
2021/05/08 10:14:40;;;;;;;7.78;2.53;;;;;;;14.41;41.52;100030.13;5015828;28;20104;-73
2021/05/08 10:17:24;;;;;;;6.63;2.05;;;;;;;14.43;42.62;100041.59;5015797;28;20149;-72
2021/05/08 10:19:55;;;;;;;3.50;1.88;;;;;;;14.30;44.02;100040.84;5015770;28;20060;-71
2021/05/08 10:22:24;;;;;;;3.57;2.00;;;;;;;14.17;45.02;100035.59;5015865;28;20058;-73
2021/05/08 10:24:50;;;;;;;3.38;1.85;;;;;;;14.07;45.78;100040.84;5015490;28;20446;-72
2021/05/08 10:27:17;;;;;;;4.68;1.88;;;;;;;13.96;46.82;100023.72;5014392;28;20049;-71
2021/05/08 10:29:46;;;;;;;3.78;1.60;;;;;;;13.80;47.30;100024.09;5015261;28;20439;-71
2021/05/08 10:32:22;;;;;;;5.15;1.73;;;;;;;13.92;48.37;100016.91;5015289;28;20137;-73
2021/05/08 10:34:53;;;;;;;5.43;1.75;;;;;;;13.98;47.59;100010.19;5015491;28;20057;-70
2021/05/08 10:37:20;;;;;;;;;;;;;;;13.99;47.02;100012.75;5014686;28;20058;-71
2021/05/08 10:39:51;;;;;;;4.00;1.30;;;;;;;14.01;47.21;99998.38;5015248;28;19925;-70
2021/05/08 10:42:46;;;;;;;3.08;1.52;;;;;;;14.05;47.57;99999.84;5015362;28;20427;-69
2021/05/08 10:45:12;;;;;;;3.05;1.58;;;;;;;14.15;45.05;99984.72;5015483;28;20056;-73
2021/05/08 10:47:58;;;;;;;3.97;1.60;;;;;;;14.24;44.43;99983.16;5015246;28;20455;-72
2021/05/08 10:50:27;;;;;;;3.05;1.30;;;;;;;14.32;43.76;99983.38;5015452;28;20359;-71
2021/05/08 10:53:14;;;;;;;3.97;2.05;;;;;;;14.43;42.99;99966.41;5014196;28;20046;-73
2021/05/08 10:55:51;;;;;;;3.13;1.10;;;;;;;14.52;41.13;99954.94;5015160;28;20054;-73
2021/05/08 10:58:17;;;;;;;1.60;1.00;;;;;;;14.64;41.69;99962.97;5014840;28;20428;-71
2021/05/08 11:00:58;;;;;;;1.42;0.95;;;;;;;14.64;40.33;99958.44;5013970;28;20100;-73
2021/05/08 11:03:43;;;;;;;3.25;1.08;;;;;;;14.58;40.26;99942.84;5015121;28;20054;-73
2021/05/08 11:06:09;;;;;;;1.60;1.05;;;;;;;14.53;41.39;99943.22;5027978;28;20058;-73
2021/05/08 11:08:36;;;;;;;1.67;1.13;;;;;;;14.55;42.27;99947.59;5014989;28;20145;-71
2021/05/08 11:11:14;;;;;;;2.75;1.40;;;;;;;14.55;41.68;99950.28;5014935;28;20056;-72
2021/05/08 11:13:43;;;;;;;3.10;1.20;;;;;;;14.44;44.59;99937.72;5015119;28;20080;-73
2021/05/08 11:16:14;;;;;;;2.75;1.38;;;;;;;14.29;44.29;99932.63;5015139;28;20058;-73
2021/05/08 11:18:45;;;;;;;4.75;1.50;;;;;;;14.33;43.99;99931.38;5014962;28;20050;-71
2021/05/08 11:21:15;;;;;;;9.05;2.55;;;;;;;14.47;44.76;99940.16;5014989;28;20359;-72
2021/05/08 11:23:48;;;;;;;3.15;1.90;;;;;;;14.48;45.10;99932.00;5014075;28;20050;-73
2021/05/08 11:26:30;;;;;;;4.05;1.92;;;;;;;14.62;45.23;99921.94;5015266;28;20100;-71
2021/05/08 11:29:00;;;;;;;5.57;1.98;;;;;;;14.41;47.46;99917.34;5014899;28;20347;-73
2021/05/08 11:31:32;;;;;;;7.15;2.03;;;;;;;14.18;48.44;99906.66;5015113;28;20112;-73
2021/05/08 11:34:18;;;;;;;2.50;1.95;;;;;;;14.05;49.40;99908.63;5014889;28;20060;-73